Terminal Aerodrome Forecast
Issued by NWS

Home | Current Version | Previous Version | Graphics & Text | Print | Product List | Glossary On
Versions: 1 2 3 4 5 6 7 8 9 10 11 12 13 14 15 16 17 18 19
000
FTUS43 KMPX 311740
TAFAXN
TAF
KAXN 311740Z 3118/0118 20018G27KT P6SM SCT250
     FM312300 21007KT P6SM SCT120 BKN200
     FM010800 VRB04KT P6SM SCT070 OVC150
     FM011500 13004KT P6SM SCT250=

USA.gov is the U.S. government's official web portal to all federal, state and local government web resources and services.